Time;durP1;ratioP1;P1;durP2;ratioP2;P2;SDS_P1;SDS_P2;PMS_P1;PMS_P2;Temp;Humidity;BMP_temperature;BMP_pressure;BME280_temperature;BME280_humidity;BME280_pressure;Samples;Min_cycle;Max_cycle;Signal;HPM_P1;HPM_P2
2021/10/15 00:00:35;;;;;;;4.97;2.25;;;;;;;;;;5073872;28;20046;-60
2021/10/15 00:03:05;;;;;;;4.85;2.38;;;;;;;;;;5074990;28;20091;-64
2021/10/15 00:05:34;;;;;;;3.55;1.95;;;;;;;;;;5084404;28;20052;-63
2021/10/15 00:08:02;;;;;;;3.78;2.33;;;;;;;;;;5088334;28;20056;-61
2021/10/15 00:10:30;;;;;;;4.15;2.42;;;;;;;;;;5071924;28;20084;-61
2021/10/15 00:12:58;;;;;;;3.85;1.95;;;;;;;;;;5059440;28;20071;-61
2021/10/15 00:15:27;;;;;;;5.70;2.75;;;;;;;;;;5073321;28;20136;-61
2021/10/15 00:17:55;;;;;;;4.00;2.25;;;;;;;;;;5073038;28;20567;-61
2021/10/15 00:20:25;;;;;;;5.50;2.40;;;;;;;;;;5067467;28;20079;-62
2021/10/15 00:22:53;;;;;;;6.22;2.58;;;;;;;;;;5073138;28;20411;-64
2021/10/15 00:25:21;;;;;;;2.70;1.83;;;;;;;;;;5071265;28;20124;-61
2021/10/15 00:27:49;;;;;;;4.50;2.05;;;;;;;;;;5091066;28;20040;-61
2021/10/15 00:30:18;;;;;;;4.70;1.70;;;;;;;;;;5062322;28;20131;-61
2021/10/15 00:32:46;;;;;;;3.50;2.03;;;;;;;;;;5073776;28;20082;-63
2021/10/15 00:35:15;;;;;;;6.57;2.28;;;;;;;;;;5077781;28;20411;-64
2021/10/15 00:37:48;;;;;;;3.67;2.00;;;;;;;;;;5084106;28;20070;-62
2021/10/15 00:40:17;;;;;;;3.88;1.92;;;;;;;;;;5071500;28;20113;-61
2021/10/15 00:42:45;;;;;;;4.32;2.20;;;;;;;;;;5082545;28;20055;-61
2021/10/15 00:45:13;;;;;;;3.80;2.15;;;;;;;;;;5071064;28;20088;-62
2021/10/15 00:47:42;;;;;;;3.78;2.03;;;;;;;;;;5067371;28;20049;-63
2021/10/15 00:50:11;;;;;;;4.72;2.03;;;;;;;;;;5057415;28;20089;-63
2021/10/15 00:52:40;;;;;;;5.72;2.60;;;;;;;;;;5071192;28;20119;-60
2021/10/15 00:55:10;;;;;;;4.05;2.13;;;;;;;;;;5074023;28;20494;-61
2021/10/15 00:57:38;;;;;;;4.90;1.95;;;;;;;;;;5083747;28;20682;-62
2021/10/15 01:00:08;;;;;;;5.82;2.42;;;;;;;;;;5071473;28;20151;-64
2021/10/15 01:02:37;;;;;;;3.45;1.85;;;;;;;;;;5070764;28;20110;-62
2021/10/15 01:05:06;;;;;;;3.42;1.63;;;;;;;;;;5066328;28;20057;-62
2021/10/15 01:07:35;;;;;;;3.47;1.60;;;;;;;;;;5071856;28;20515;-64
2021/10/15 01:10:04;;;;;;;4.28;1.77;;;;;;;;;;5086684;28;20133;-64
2021/10/15 01:12:34;;;;;;;3.65;1.80;;;;;;;;;;5081112;28;20046;-63
2021/10/15 01:15:02;;;;;;;3.97;1.80;;;;;;;;;;5073159;28;20079;-61
2021/10/15 01:17:30;;;;;;;3.28;1.42;;;;;;;;;;5071990;28;20056;-61
2021/10/15 01:20:00;;;;;;;3.60;1.65;;;;;;;;;;5070890;28;20076;-63
2021/10/15 01:22:29;;;;;;;7.25;1.98;;;;;;;;;;5069912;28;20045;-62
2021/10/15 01:24:58;;;;;;;3.95;2.05;;;;;;;;;;5088350;28;20044;-63
2021/10/15 01:27:26;;;;;;;3.30;2.10;;;;;;;;;;5067982;28;20131;-64
2021/10/15 01:29:54;;;;;;;3.78;1.55;;;;;;;;;;5071887;28;20151;-61
2021/10/15 01:32:23;;;;;;;3.70;1.60;;;;;;;;;;5073949;28;20922;-62
2021/10/15 01:34:51;;;;;;;4.30;1.60;;;;;;;;;;5070485;28;20135;-61
2021/10/15 01:37:21;;;;;;;3.25;1.70;;;;;;;;;;5081213;28;20048;-61
2021/10/15 01:39:49;;;;;;;2.70;1.70;;;;;;;;;;5069198;28;20052;-61
2021/10/15 01:45:20;;;;;;;2.41;1.38;;;;;;;;;;2586197;28;10003345;-61
2021/10/15 01:47:48;;;;;;;3.30;1.58;;;;;;;;;;3652099;28;10001892;-62
2021/10/15 01:50:16;;;;;;;3.50;1.63;;;;;;;;;;5054536;28;20044;-64
2021/10/15 01:52:46;;;;;;;3.70;1.63;;;;;;;;;;5055811;28;20059;-63
2021/10/15 01:55:14;;;;;;;3.10;1.58;;;;;;;;;;5068170;28;20140;-61
2021/10/15 01:57:42;;;;;;;3.65;1.60;;;;;;;;;;5056405;28;20408;-61
2021/10/15 02:00:11;;;;;;;3.10;1.50;;;;;;;;;;5051647;28;20055;-61
2021/10/15 02:02:40;;;;;;;4.82;1.70;;;;;;;;;;5049405;28;20136;-62
2021/10/15 02:05:09;;;;;;;2.92;1.65;;;;;;;;;;5050550;28;20075;-60
2021/10/15 02:07:38;;;;;;;4.15;1.85;;;;;;;;;;5056922;28;20040;-65
2021/10/15 02:10:09;;;;;;;3.42;1.40;;;;;;;;;;5033239;28;20136;-66
2021/10/15 02:12:37;;;;;;;2.63;1.50;;;;;;;;;;5054618;28;20156;-62
2021/10/15 02:15:06;;;;;;;3.75;1.40;;;;;;;;;;5052117;28;20049;-60
2021/10/15 02:17:35;;;;;;;2.63;1.58;;;;;;;;;;5052094;28;20474;-63
2021/10/15 02:20:04;;;;;;;3.38;1.73;;;;;;;;;;5050686;28;20132;-62
2021/10/15 02:22:32;;;;;;;3.00;1.80;;;;;;;;;;5049923;28;20128;-61
2021/10/15 02:25:00;;;;;;;2.65;1.73;;;;;;;;;;5065567;28;20045;-60
2021/10/15 02:27:30;;;;;;;3.47;1.70;;;;;;;;;;5045959;28;20084;-60
2021/10/15 02:29:58;;;;;;;1.30;1.00;;;;;;;;;;5052220;28;20345;-60
2021/10/15 02:32:26;;;;;;;2.85;1.80;;;;;;;;;;5050480;28;20068;-62
2021/10/15 02:34:55;;;;;;;2.88;1.30;;;;;;;;;;5049895;28;20040;-59
2021/10/15 02:37:23;;;;;;;3.78;1.50;;;;;;;;;;5052112;28;20045;-60
2021/10/15 02:39:51;;;;;;;5.70;1.73;;;;;;;;;;5061076;28;20084;-60
2021/10/15 02:42:20;;;;;;;1.90;1.38;;;;;;;;;;5048446;28;20175;-63
2021/10/15 02:44:49;;;;;;;2.58;1.17;;;;;;;;;;5047058;28;20062;-60
2021/10/15 02:47:17;;;;;;;2.58;1.50;;;;;;;;;;5045366;28;20140;-60
2021/10/15 02:49:46;;;;;;;2.72;1.40;;;;;;;;;;5036543;28;20041;-60
2021/10/15 02:52:14;;;;;;;4.35;1.50;;;;;;;;;;5035338;28;20049;-60
2021/10/15 02:54:42;;;;;;;2.03;1.10;;;;;;;;;;5029604;28;20057;-60
2021/10/15 02:57:10;;;;;;;2.25;1.48;;;;;;;;;;5030191;28;20059;-59
2021/10/15 02:59:38;;;;;;;2.10;1.17;;;;;;;;;;5037385;28;20057;-63
2021/10/15 03:02:08;;;;;;;2.60;1.27;;;;;;;;;;5035402;28;20049;-64
2021/10/15 03:04:36;;;;;;;2.55;1.50;;;;;;;;;;5035241;28;20053;-60
2021/10/15 03:07:05;;;;;;;2.90;1.10;;;;;;;;;;5035829;28;20119;-63
2021/10/15 03:09:33;;;;;;;2.20;1.30;;;;;;;;;;5040657;28;20465;-62
2021/10/15 03:12:01;;;;;;;2.33;1.40;;;;;;;;;;5036994;28;20067;-59
2021/10/15 03:14:30;;;;;;;2.65;1.70;;;;;;;;;;5033473;28;20053;-60
2021/10/15 03:16:58;;;;;;;3.75;1.20;;;;;;;;;;5035446;28;20128;-61
2021/10/15 03:19:28;;;;;;;4.38;1.42;;;;;;;;;;5033861;28;20136;-60
2021/10/15 03:21:56;;;;;;;1.92;1.13;;;;;;;;;;5046416;28;20432;-60
2021/10/15 03:24:24;;;;;;;3.55;1.67;;;;;;;;;;5041040;28;20069;-59
2021/10/15 03:26:53;;;;;;;1.30;1.10;;;;;;;;;;5041199;28;20127;-59
2021/10/15 03:29:21;;;;;;;3.33;1.40;;;;;;;;;;5036336;28;20049;-60
2021/10/15 03:31:49;;;;;;;2.78;1.45;;;;;;;;;;5040407;28;20084;-60
2021/10/15 03:34:17;;;;;;;2.03;1.10;;;;;;;;;;5040507;28;20493;-64
2021/10/15 03:36:47;;;;;;;2.10;1.48;;;;;;;;;;5040034;28;20081;-61
2021/10/15 03:39:15;;;;;;;3.17;1.30;;;;;;;;;;5045820;28;20049;-60
2021/10/15 03:41:43;;;;;;;2.03;1.10;;;;;;;;;;5040672;28;20063;-59
2021/10/15 03:44:12;;;;;;;2.70;1.20;;;;;;;;;;5037329;28;20145;-59
2021/10/15 03:46:40;;;;;;;1.60;1.10;;;;;;;;;;5072119;28;20061;-62
2021/10/15 03:49:08;;;;;;;1.35;1.00;;;;;;;;;;5080022;28;20135;-60
2021/10/15 03:51:36;;;;;;;2.63;1.38;;;;;;;;;;5067250;28;20490;-61
2021/10/15 03:54:06;;;;;;;2.08;1.23;;;;;;;;;;5080464;28;20055;-63
2021/10/15 03:56:35;;;;;;;2.42;1.05;;;;;;;;;;5072587;28;20084;-62
2021/10/15 03:59:03;;;;;;;2.83;1.30;;;;;;;;;;5073504;28;20131;-59
2021/10/15 04:01:31;;;;;;;3.60;1.63;;;;;;;;;;5070969;28;20515;-60
2021/10/15 04:04:00;;;;;;;4.38;1.63;;;;;;;;;;5084189;28;20106;-60
2021/10/15 04:06:28;;;;;;;1.27;1.10;;;;;;;;;;5072619;28;20097;-63
2021/10/15 04:08:56;;;;;;;2.65;1.20;;;;;;;;;;5085764;28;20130;-61
2021/10/15 04:11:26;;;;;;;1.63;1.08;;;;;;;;;;5070716;28;20067;-60
2021/10/15 04:13:54;;;;;;;2.67;1.50;;;;;;;;;;5072501;28;20083;-59
2021/10/15 04:16:22;;;;;;;2.38;1.20;;;;;;;;;;5074200;28;20092;-59
2021/10/15 04:18:51;;;;;;;2.58;1.30;;;;;;;;;;5076110;28;20090;-62
2021/10/15 04:21:19;;;;;;;4.10;1.48;;;;;;;;;;5072387;28;20140;-61
2021/10/15 04:23:47;;;;;;;1.58;1.17;;;;;;;;;;5082048;28;20468;-62
2021/10/15 04:26:15;;;;;;;3.42;1.20;;;;;;;;;;5072725;28;20054;-62
2021/10/15 04:28:45;;;;;;;3.78;1.42;;;;;;;;;;5074124;28;20482;-63
2021/10/15 04:31:13;;;;;;;2.65;1.40;;;;;;;;;;5072040;28;20131;-59
2021/10/15 04:33:42;;;;;;;3.65;1.30;;;;;;;;;;5069800;28;20459;-60
2021/10/15 04:36:10;;;;;;;4.05;1.40;;;;;;;;;;5069257;28;20059;-59
2021/10/15 04:38:38;;;;;;;3.42;1.27;;;;;;;;;;5065045;28;20048;-60
2021/10/15 04:41:07;;;;;;;2.95;1.50;;;;;;;;;;5056094;28;20044;-60
2021/10/15 04:43:35;;;;;;;3.50;1.13;;;;;;;;;;5067778;28;20053;-63
2021/10/15 04:46:05;;;;;;;2.33;1.50;;;;;;;;;;5062573;28;20138;-59
2021/10/15 04:48:33;;;;;;;2.17;1.10;;;;;;;;;;5064448;28;20492;-59
2021/10/15 04:51:02;;;;;;;4.07;1.33;;;;;;;;;;5078268;28;20440;-59
2021/10/15 04:53:30;;;;;;;6.15;1.50;;;;;;;;;;5080542;28;20489;-62
2021/10/15 04:55:58;;;;;;;3.50;1.52;;;;;;;;;;5065924;28;20148;-64
2021/10/15 04:58:26;;;;;;;1.90;1.30;;;;;;;;;;5064137;28;20040;-62
2021/10/15 05:00:54;;;;;;;3.55;1.40;;;;;;;;;;5072387;28;20371;-65
2021/10/15 05:03:25;;;;;;;1.73;1.10;;;;;;;;;;5066544;28;20515;-62
2021/10/15 05:05:53;;;;;;;2.90;1.38;;;;;;;;;;5073415;28;20053;-66
2021/10/15 05:08:22;;;;;;;2.60;1.50;;;;;;;;;;5076141;28;20163;-63
2021/10/15 05:10:50;;;;;;;4.95;1.30;;;;;;;;;;5072045;28;20552;-61
2021/10/15 05:13:18;;;;;;;3.08;1.20;;;;;;;;;;5068644;28;20102;-61
2021/10/15 05:15:47;;;;;;;5.47;1.33;;;;;;;;;;5069540;28;20107;-61
2021/10/15 05:18:15;;;;;;;1.60;1.20;;;;;;;;;;5066331;28;20139;-62
2021/10/15 05:20:46;;;;;;;2.92;1.63;;;;;;;;;;5061749;28;20518;-61
2021/10/15 05:23:14;;;;;;;2.33;1.48;;;;;;;;;;5051984;28;20148;-63
2021/10/15 05:25:43;;;;;;;2.60;1.42;;;;;;;;;;5066777;28;20824;-61
2021/10/15 05:28:11;;;;;;;1.55;1.10;;;;;;;;;;5071906;28;20139;-63
2021/10/15 05:30:40;;;;;;;1.90;1.10;;;;;;;;;;5068487;28;20598;-62
2021/10/15 05:33:09;;;;;;;3.33;1.17;;;;;;;;;;5074284;28;20532;-61
2021/10/15 05:35:38;;;;;;;3.10;1.05;;;;;;;;;;5073504;28;20052;-62
2021/10/15 05:38:07;;;;;;;4.85;1.10;;;;;;;;;;5076920;28;20052;-63
2021/10/15 05:40:36;;;;;;;6.90;1.30;;;;;;;;;;5078692;28;20076;-63
2021/10/15 05:43:04;;;;;;;4.15;1.10;;;;;;;;;;5069610;28;20161;-68
2021/10/15 05:45:32;;;;;;;2.50;1.30;;;;;;;;;;5069041;28;20075;-65
2021/10/15 05:48:01;;;;;;;3.30;1.48;;;;;;;;;;5074451;28;20064;-61
2021/10/15 05:50:31;;;;;;;4.13;1.27;;;;;;;;;;5072812;28;20127;-61
2021/10/15 05:53:05;;;;;;;2.83;1.58;;;;;;;;;;5076085;28;20074;-61
2021/10/15 05:55:41;;;;;;;2.60;0.90;;;;;;;;;;5063564;28;20127;-64
2021/10/15 06:00:49;;;;;;;2.65;1.48;;;;;;;;;;5062157;28;20048;-61
2021/10/15 06:03:22;;;;;;;4.20;1.20;;;;;;;;;;5059892;28;20400;-62
2021/10/15 06:14:19;;;;;;;2.95;1.60;;;;;;;;;;5068728;28;20550;-63
2021/10/15 06:16:50;;;;;;;1.40;1.10;;;;;;;;;;5065641;28;20118;-64
2021/10/15 06:19:20;;;;;;;4.53;1.60;;;;;;;;;;5065088;28;20131;-65
2021/10/15 06:21:49;;;;;;;5.03;1.55;;;;;;;;;;5066165;28;20447;-61
2021/10/15 06:24:18;;;;;;;3.30;1.63;;;;;;;;;;5070716;28;20438;-62
2021/10/15 06:26:47;;;;;;;3.92;1.60;;;;;;;;;;5069362;28;20560;-61
2021/10/15 06:29:16;;;;;;;6.35;1.75;;;;;;;;;;5069555;28;20079;-64
2021/10/15 06:31:44;;;;;;;1.75;1.10;;;;;;;;;;5086127;28;20719;-63
2021/10/15 06:34:13;;;;;;;1.90;1.27;;;;;;;;;;5080162;28;20044;-61
2021/10/15 06:36:41;;;;;;;2.15;1.23;;;;;;;;;;5066082;28;20157;-64
2021/10/15 06:39:10;;;;;;;3.70;1.48;;;;;;;;;;5057777;28;20045;-63
2021/10/15 06:41:38;;;;;;;2.63;1.58;;;;;;;;;;5059332;28;20090;-64
2021/10/15 06:44:08;;;;;;;4.75;1.98;;;;;;;;;;5058121;28;20075;-63
2021/10/15 06:46:36;;;;;;;2.67;1.20;;;;;;;;;;5058736;28;20139;-62
2021/10/15 06:49:05;;;;;;;3.95;1.73;;;;;;;;;;5064467;28;20492;-66
2021/10/15 06:51:37;;;;;;;5.50;1.30;;;;;;;;;;5067150;28;20056;-63
2021/10/15 06:54:06;;;;;;;2.35;1.33;;;;;;;;;;5065235;28;20060;-66
2021/10/15 06:56:35;;;;;;;2.20;1.17;;;;;;;;;;5069436;28;20044;-63
2021/10/15 06:59:04;;;;;;;2.53;1.27;;;;;;;;;;5074016;28;20419;-60
2021/10/15 07:01:34;;;;;;;3.67;1.70;;;;;;;;;;5072997;28;20059;-62
2021/10/15 07:04:03;;;;;;;7.63;1.77;;;;;;;;;;5070359;28;20105;-63
2021/10/15 07:06:31;;;;;;;1.92;1.30;;;;;;;;;;5051952;28;20516;-65
2021/10/15 07:09:00;;;;;;;3.67;1.73;;;;;;;;;;5075381;28;20059;-62
2021/10/15 07:11:30;;;;;;;2.58;1.25;;;;;;;;;;5065556;28;20415;-60
2021/10/15 07:13:59;;;;;;;4.72;1.40;;;;;;;;;;5055367;28;20088;-61
2021/10/15 07:16:28;;;;;;;6.85;1.40;;;;;;;;;;5054143;28;20322;-60
2021/10/15 07:18:58;;;;;;;2.83;1.77;;;;;;;;;;5050855;28;20053;-63
2021/10/15 07:21:27;;;;;;;4.72;1.55;;;;;;;;;;5045808;28;20049;-66
2021/10/15 07:23:56;;;;;;;2.78;1.40;;;;;;;;;;5059791;28;20449;-60
2021/10/15 07:26:24;;;;;;;3.03;1.20;;;;;;;;;;5058913;28;20051;-62
2021/10/15 07:28:53;;;;;;;3.10;1.58;;;;;;;;;;5057450;28;20056;-62
2021/10/15 07:31:21;;;;;;;3.53;1.58;;;;;;;;;;5070588;28;20044;-62
2021/10/15 07:33:50;;;;;;;3.78;1.42;;;;;;;;;;5067820;28;20063;-63
2021/10/15 07:36:20;;;;;;;2.45;1.20;;;;;;;;;;5055446;28;20642;-64
2021/10/15 07:38:48;;;;;;;4.28;1.52;;;;;;;;;;5061255;28;20045;-61
2021/10/15 07:41:18;;;;;;;3.25;1.67;;;;;;;;;;5066385;28;20373;-62
2021/10/15 07:43:50;;;;;;;5.57;2.08;;;;;;;;;;5067379;28;20059;-63
2021/10/15 07:46:19;;;;;;;4.43;1.58;;;;;;;;;;5063560;28;20049;-64
2021/10/15 07:48:48;;;;;;;18.85;2.28;;;;;;;;;;5059759;28;20523;-65
2021/10/15 07:51:17;;;;;;;5.28;1.55;;;;;;;;;;5055480;28;20047;-62
2021/10/15 07:53:47;;;;;;;4.20;1.55;;;;;;;;;;5066440;28;20041;-62
2021/10/15 07:56:16;;;;;;;6.03;1.90;;;;;;;;;;5059413;28;20102;-62
2021/10/15 07:58:44;;;;;;;4.50;2.08;;;;;;;;;;5071470;28;20082;-63
2021/10/15 08:01:13;;;;;;;6.55;2.30;;;;;;;;;;5073195;28;20078;-62
2021/10/15 08:03:42;;;;;;;3.28;1.73;;;;;;;;;;5065973;28;20044;-62
2021/10/15 08:06:11;;;;;;;3.58;1.77;;;;;;;;;;5065719;28;20484;-62
2021/10/15 08:08:40;;;;;;;2.22;1.30;;;;;;;;;;5062213;28;20041;-62
2021/10/15 08:11:11;;;;;;;2.28;1.50;;;;;;;;;;5071093;28;20459;-62
2021/10/15 08:13:40;;;;;;;4.78;1.75;;;;;;;;;;5064879;28;20056;-63
2021/10/15 08:16:08;;;;;;;4.10;1.60;;;;;;;;;;5070111;28;20037;-62
2021/10/15 08:18:37;;;;;;;3.30;2.10;;;;;;;;;;5068921;28;20509;-62
2021/10/15 08:21:06;;;;;;;3.65;2.10;;;;;;;;;;5054721;28;20049;-64
2021/10/15 08:23:34;;;;;;;4.03;2.00;;;;;;;;;;5068982;28;20048;-62
2021/10/15 08:26:03;;;;;;;5.15;2.42;;;;;;;;;;5071046;28;20453;-66
2021/10/15 08:28:34;;;;;;;4.88;2.38;;;;;;;;;;5065534;28;20092;-62
2021/10/15 08:31:11;;;;;;;3.30;1.95;;;;;;;;;;5062213;28;20040;-62
2021/10/15 08:33:40;;;;;;;4.50;1.92;;;;;;;;;;5071556;28;20049;-62
2021/10/15 08:36:09;;;;;;;5.72;2.42;;;;;;;;;;5087673;28;20102;-63
2021/10/15 08:38:38;;;;;;;3.83;2.08;;;;;;;;;;5072458;28;20098;-63
2021/10/15 08:41:07;;;;;;;3.33;1.90;;;;;;;;;;5068850;28;20055;-63
2021/10/15 08:43:38;;;;;;;4.43;1.85;;;;;;;;;;5066422;28;20047;-66
2021/10/15 08:46:07;;;;;;;3.72;1.73;;;;;;;;;;5065227;28;20056;-63
2021/10/15 08:48:39;;;;;;;4.40;1.88;;;;;;;;;;5057392;28;20571;-63
2021/10/15 08:51:08;;;;;;;4.93;1.67;;;;;;;;;;5069282;28;20064;-62
2021/10/15 08:53:46;;;;;;;3.20;1.80;;;;;;;;;;5066877;28;20156;-63
2021/10/15 08:56:17;;;;;;;5.28;1.40;;;;;;;;;;5069666;28;20047;-63
2021/10/15 08:58:48;;;;;;;2.65;1.90;;;;;;;;;;5067637;28;20063;-64
2021/10/15 09:01:17;;;;;;;2.80;1.65;;;;;;;;;;5067737;28;20052;-63
2021/10/15 09:03:46;;;;;;;5.05;1.63;;;;;;;;;;5060792;28;20067;-65
2021/10/15 09:06:16;;;;;;;4.15;1.80;;;;;;;;;;5070635;28;20050;-62
2021/10/15 09:08:49;;;;;;;4.45;1.60;;;;;;;;;;5071056;28;20052;-65
2021/10/15 09:11:28;;;;;;;4.32;1.80;;;;;;;;;;5069268;28;20532;-63
2021/10/15 09:14:18;;;;;;;5.22;1.85;;;;;;;;;;5071925;28;20045;-62
2021/10/15 09:16:57;;;;;;;4.32;1.90;;;;;;;;;;5081862;28;20047;-63
2021/10/15 09:19:27;;;;;;;3.70;1.63;;;;;;;;;;5063112;28;20048;-62
2021/10/15 09:22:13;;;;;;;3.83;1.98;;;;;;;;;;5071626;28;20050;-62
2021/10/15 09:24:43;;;;;;;4.15;1.70;;;;;;;;;;5069558;28;20043;-62
2021/10/15 09:27:13;;;;;;;3.97;2.13;;;;;;;;;;5070778;28;20048;-62
2021/10/15 09:29:43;;;;;;;2.70;1.50;;;;;;;;;;5074229;28;20478;-62
2021/10/15 09:32:12;;;;;;;3.35;1.85;;;;;;;;;;5068923;28;20048;-64
2021/10/15 09:34:40;;;;;;;5.97;2.10;;;;;;;;;;5065133;28;20056;-63
2021/10/15 09:37:13;;;;;;;4.75;1.92;;;;;;;;;;5083314;28;20049;-62
2021/10/15 09:39:42;;;;;;;2.65;1.35;;;;;;;;;;5072128;28;20056;-62
2021/10/15 09:42:24;;;;;;;3.03;1.85;;;;;;;;;;5077102;28;20079;-63
2021/10/15 09:44:55;;;;;;;4.43;1.92;;;;;;;;;;5071143;28;20086;-62
2021/10/15 09:47:26;;;;;;;2.80;1.88;;;;;;;;;;5072637;28;20056;-62
2021/10/15 09:49:56;;;;;;;4.15;2.30;;;;;;;;;;5078563;28;20052;-64
2021/10/15 09:52:36;;;;;;;3.90;2.10;;;;;;;;;;5071711;28;20058;-65
2021/10/15 09:55:06;;;;;;;3.53;1.70;;;;;;;;;;5071382;28;20052;-64
2021/10/15 09:57:37;;;;;;;4.78;2.30;;;;;;;;;;5066470;28;20049;-62
2021/10/15 10:00:08;;;;;;;3.97;2.08;;;;;;;;;;5072452;28;20052;-64
2021/10/15 10:02:37;;;;;;;4.28;2.20;;;;;;;;;;5070174;28;20500;-63
2021/10/15 10:05:11;;;;;;;3.05;1.90;;;;;;;;;;5064624;28;20048;-65
2021/10/15 10:07:40;;;;;;;5.38;2.67;;;;;;;;;;5071201;28;20059;-62
2021/10/15 10:10:10;;;;;;;7.38;2.78;;;;;;;;;;5066557;28;20052;-63
2021/10/15 10:12:39;;;;;;;3.85;2.50;;;;;;;;;;5067993;28;20127;-62
2021/10/15 10:15:10;;;;;;;4.60;2.28;;;;;;;;;;5069171;28;20040;-62
2021/10/15 10:17:42;;;;;;;3.47;2.03;;;;;;;;;;5070500;28;20064;-62
2021/10/15 10:20:12;;;;;;;4.72;2.10;;;;;;;;;;5071626;28;20044;-62
2021/10/15 10:22:45;;;;;;;5.50;2.45;;;;;;;;;;5070024;28;20066;-63
2021/10/15 10:25:22;;;;;;;3.95;2.38;;;;;;;;;;5057039;28;20053;-62
2021/10/15 10:27:50;;;;;;;4.22;2.25;;;;;;;;;;5070691;28;20107;-64
2021/10/15 10:30:35;;;;;;;4.60;2.30;;;;;;;;;;5070488;28;20552;-62
2021/10/15 10:33:04;;;;;;;3.83;2.28;;;;;;;;;;5070055;28;20037;-64
2021/10/15 10:35:32;;;;;;;6.07;2.65;;;;;;;;;;5074237;28;20559;-62
2021/10/15 10:38:20;;;;;;;3.92;2.08;;;;;;;;;;5070671;28;20048;-63
2021/10/15 10:41:14;;;;;;;4.30;2.22;;;;;;;;;;5070475;28;20094;-63
2021/10/15 10:44:07;;;;;;;3.60;1.90;;;;;;;;;;5074613;28;20056;-62
2021/10/15 10:46:37;;;;;;;7.78;2.53;;;;;;;;;;5048068;28;20127;-62
2021/10/15 10:49:18;;;;;;;5.55;2.42;;;;;;;;;;5053826;28;20053;-63
2021/10/15 10:52:02;;;;;;;5.40;2.40;;;;;;;;;;5066190;28;20062;-65
2021/10/15 10:54:30;;;;;;;3.75;2.17;;;;;;;;;;5082629;28;20044;-62
2021/10/15 10:56:59;;;;;;;6.45;2.30;;;;;;;;;;5077647;28;20074;-62
2021/10/15 10:59:31;;;;;;;3.13;1.90;;;;;;;;;;5061492;28;20044;-62
2021/10/15 11:02:03;;;;;;;6.30;2.60;;;;;;;;;;5070372;28;20075;-62
2021/10/15 11:04:32;;;;;;;3.72;2.13;;;;;;;;;;5081361;28;20053;-63
2021/10/15 11:07:03;;;;;;;3.45;1.85;;;;;;;;;;5064959;28;20071;-64
2021/10/15 11:09:38;;;;;;;5.82;2.38;;;;;;;;;;5080552;28;20081;-63
2021/10/15 11:12:06;;;;;;;;;;;;;;;;;;5052423;28;20088;-67
2021/10/15 11:14:50;;;;;;;4.43;2.20;;;;;;;;;;5055314;28;19924;-63
2021/10/15 11:17:21;;;;;;;2.90;1.85;;;;;;;;;;5072457;28;20040;-62
2021/10/15 11:20:07;;;;;;;4.32;2.15;;;;;;;;;;5070197;28;20040;-64
2021/10/15 11:22:36;;;;;;;7.25;2.70;;;;;;;;;;5069891;28;20052;-66
2021/10/15 11:25:05;;;;;;;3.67;2.38;;;;;;;;;;5088801;28;20129;-62
2021/10/15 11:27:34;;;;;;;1.73;1.35;;;;;;;;;;5072002;28;20581;-62
2021/10/15 11:30:02;;;;;;;4.25;2.42;;;;;;;;;;5070878;28;20060;-62
2021/10/15 11:32:34;;;;;;;3.05;1.70;;;;;;;;;;5086568;28;20048;-62
2021/10/15 11:35:11;;;;;;;4.07;1.77;;;;;;;;;;5026266;28;20095;-63
2021/10/15 11:37:43;;;;;;;4.63;2.05;;;;;;;;;;5054602;28;20044;-62
2021/10/15 11:40:13;;;;;;;3.90;1.80;;;;;;;;;;5050944;28;20488;-62
2021/10/15 11:42:42;;;;;;;3.10;1.95;;;;;;;;;;5049667;28;20049;-62
2021/10/15 11:45:26;;;;;;;6.13;2.40;;;;;;;;;;5059006;28;20099;-66
2021/10/15 11:48:00;;;;;;;3.40;1.80;;;;;;;;;;5048322;28;20505;-62
2021/10/15 11:50:33;;;;;;;3.90;2.10;;;;;;;;;;5037365;28;20080;-63
2021/10/15 11:53:02;;;;;;;3.78;1.90;;;;;;;;;;5042350;28;20045;-62
2021/10/15 11:55:32;;;;;;;4.25;1.65;;;;;;;;;;5046858;28;20052;-62
2021/10/15 11:58:20;;;;;;;3.85;1.77;;;;;;;;;;5047703;28;20246;-64
2021/10/15 12:01:11;;;;;;;3.80;1.40;;;;;;;;;;5051347;28;20048;-62
2021/10/15 12:03:43;;;;;;;3.67;1.83;;;;;;;;;;5043147;28;20157;-63
2021/10/15 12:06:16;;;;;;;5.63;2.00;;;;;;;;;;5060857;28;20109;-64
2021/10/15 12:08:45;;;;;;;3.08;1.80;;;;;;;;;;5064871;28;20084;-62
2021/10/15 12:11:15;;;;;;;4.50;2.00;;;;;;;;;;5081338;28;20040;-63
2021/10/15 12:13:44;;;;;;;3.28;1.70;;;;;;;;;;5071577;28;20052;-62
2021/10/15 12:16:24;;;;;;;4.13;1.90;;;;;;;;;;5083287;28;20163;-62
2021/10/15 12:19:08;;;;;;;5.22;2.17;;;;;;;;;;5086763;28;20052;-63
2021/10/15 12:21:38;;;;;;;3.08;1.75;;;;;;;;;;5070840;28;20063;-64
2021/10/15 12:24:08;;;;;;;4.60;2.40;;;;;;;;;;5071817;28;20049;-67
2021/10/15 12:26:37;;;;;;;4.57;2.10;;;;;;;;;;5073742;28;20058;-64
2021/10/15 12:29:06;;;;;;;3.47;1.90;;;;;;;;;;5073573;28;20056;-65
2021/10/15 12:31:36;;;;;;;4.07;2.38;;;;;;;;;;5071778;28;20080;-62
2021/10/15 12:34:06;;;;;;;3.63;2.08;;;;;;;;;;5092974;28;20040;-62
2021/10/15 12:36:37;;;;;;;3.58;1.88;;;;;;;;;;5078705;28;20052;-64
2021/10/15 12:39:16;;;;;;;4.20;1.75;;;;;;;;;;5069719;28;20104;-65
2021/10/15 12:41:45;;;;;;;4.38;1.85;;;;;;;;;;5067954;28;20045;-65
2021/10/15 12:44:21;;;;;;;4.82;2.08;;;;;;;;;;5071530;28;20052;-62
2021/10/15 12:47:00;;;;;;;6.25;2.15;;;;;;;;;;5069042;28;20055;-63
2021/10/15 12:49:29;;;;;;;5.05;2.35;;;;;;;;;;5069770;28;20071;-65
2021/10/15 12:52:01;;;;;;;3.70;1.73;;;;;;;;;;5073790;28;20044;-62
2021/10/15 12:54:39;;;;;;;4.15;2.47;;;;;;;;;;5072292;28;20097;-63
2021/10/15 12:57:12;;;;;;;3.88;2.17;;;;;;;;;;5081446;28;20148;-64
2021/10/15 12:59:40;;;;;;;2.63;1.77;;;;;;;;;;5053047;28;20129;-64
2021/10/15 13:02:09;;;;;;;6.05;2.25;;;;;;;;;;5079548;28;20048;-62
2021/10/15 13:04:38;;;;;;;4.18;2.03;;;;;;;;;;5082099;28;20048;-64
2021/10/15 13:07:08;;;;;;;3.05;1.48;;;;;;;;;;5075829;28;20091;-65
2021/10/15 13:09:37;;;;;;;2.65;1.42;;;;;;;;;;5070364;28;20094;-65
2021/10/15 13:12:06;;;;;;;4.35;1.85;;;;;;;;;;5064559;28;20048;-65
2021/10/15 13:14:36;;;;;;;3.60;1.50;;;;;;;;;;5068211;28;20078;-62
2021/10/15 13:17:05;;;;;;;3.67;1.80;;;;;;;;;;5052622;28;20497;-66
2021/10/15 13:19:34;;;;;;;2.92;1.88;;;;;;;;;;5052901;28;20040;-62
2021/10/15 13:22:03;;;;;;;3.85;1.98;;;;;;;;;;5056906;28;20412;-65
2021/10/15 13:24:33;;;;;;;3.25;1.60;;;;;;;;;;5073391;28;20044;-64
2021/10/15 13:27:02;;;;;;;2.95;1.80;;;;;;;;;;5079961;28;20049;-65
2021/10/15 13:29:31;;;;;;;3.03;1.95;;;;;;;;;;5054846;28;20041;-62
2021/10/15 13:32:00;;;;;;;3.97;1.58;;;;;;;;;;5064556;28;20041;-70
2021/10/15 13:34:29;;;;;;;4.57;2.28;;;;;;;;;;5063639;28;20131;-64
2021/10/15 13:36:57;;;;;;;3.25;1.80;;;;;;;;;;5066497;28;20048;-63
2021/10/15 13:39:30;;;;;;;4.95;2.10;;;;;;;;;;5072941;28;20036;-64
2021/10/15 13:42:13;;;;;;;4.50;1.83;;;;;;;;;;5068817;28;20047;-65
2021/10/15 13:47:38;;;;;;;3.08;1.77;;;;;;;;;;5042234;28;20040;-63
2021/10/15 13:50:07;;;;;;;3.95;1.88;;;;;;;;;;5072997;28;20113;-65
2021/10/15 13:52:36;;;;;;;2.40;1.60;;;;;;;;;;5071193;28;20048;-63
2021/10/15 13:55:07;;;;;;;3.53;2.03;;;;;;;;;;5077926;28;20056;-63
2021/10/15 13:57:39;;;;;;;3.10;1.33;;;;;;;;;;5071607;28;20123;-62
2021/10/15 14:00:12;;;;;;;3.38;1.70;;;;;;;;;;5068734;28;20048;-63
2021/10/15 14:02:47;;;;;;;8.38;1.80;;;;;;;;;;5068931;28;20546;-63
2021/10/15 14:05:15;;;;;;;6.75;1.77;;;;;;;;;;5067356;28;20055;-63
2021/10/15 14:07:44;;;;;;;2.85;1.77;;;;;;;;;;5064501;28;20496;-64
2021/10/15 14:10:14;;;;;;;3.78;1.92;;;;;;;;;;5063637;28;20045;-64
2021/10/15 14:12:44;;;;;;;3.70;1.90;;;;;;;;;;5068057;28;20044;-65
2021/10/15 14:15:18;;;;;;;3.55;2.17;;;;;;;;;;5080924;28;20053;-64
2021/10/15 14:17:46;;;;;;;3.42;2.00;;;;;;;;;;5058536;28;20055;-64
2021/10/15 14:20:15;;;;;;;3.97;2.22;;;;;;;;;;5067294;28;20352;-67
2021/10/15 14:22:43;;;;;;;4.97;1.70;;;;;;;;;;5072619;28;20059;-64
2021/10/15 14:25:16;;;;;;;3.15;1.70;;;;;;;;;;5075714;28;20075;-67
2021/10/15 14:27:47;;;;;;;4.47;1.90;;;;;;;;;;5067814;28;20036;-63
2021/10/15 14:30:20;;;;;;;3.08;2.13;;;;;;;;;;5078407;28;20048;-63
2021/10/15 14:32:49;;;;;;;5.47;2.85;;;;;;;;;;5075078;28;20107;-64
2021/10/15 14:35:18;;;;;;;4.55;2.10;;;;;;;;;;5069518;28;20055;-64
2021/10/15 14:37:46;;;;;;;6.65;2.05;;;;;;;;;;5071431;28;20566;-66
2021/10/15 14:40:15;;;;;;;2.22;1.45;;;;;;;;;;5069875;28;20045;-65
2021/10/15 14:42:44;;;;;;;2.80;1.80;;;;;;;;;;5076397;28;20094;-62
2021/10/15 14:45:14;;;;;;;4.32;1.92;;;;;;;;;;5063311;28;20075;-63
2021/10/15 14:47:43;;;;;;;4.28;1.90;;;;;;;;;;5066786;28;20060;-63
2021/10/15 14:50:12;;;;;;;2.63;1.40;;;;;;;;;;5068102;28;20055;-64
2021/10/15 14:52:40;;;;;;;3.40;1.70;;;;;;;;;;5078918;28;20125;-63
2021/10/15 14:55:09;;;;;;;3.70;1.80;;;;;;;;;;5068637;28;20481;-65
2021/10/15 14:57:38;;;;;;;6.15;2.25;;;;;;;;;;5062000;28;20053;-66
2021/10/15 15:00:07;;;;;;;3.08;1.70;;;;;;;;;;5065439;28;20546;-66
2021/10/15 15:02:40;;;;;;;2.95;1.70;;;;;;;;;;5065802;28;20044;-64
2021/10/15 15:05:09;;;;;;;3.05;1.50;;;;;;;;;;5065532;28;20124;-63
2021/10/15 15:07:38;;;;;;;2.22;1.60;;;;;;;;;;5066547;28;20396;-66
2021/10/15 15:10:07;;;;;;;4.03;1.60;;;;;;;;;;5067700;28;20404;-64
2021/10/15 15:12:36;;;;;;;3.83;1.55;;;;;;;;;;5066759;28;20052;-65
2021/10/15 15:15:04;;;;;;;3.00;1.65;;;;;;;;;;5060532;28;20045;-65
2021/10/15 15:17:33;;;;;;;3.75;1.90;;;;;;;;;;5066890;28;20076;-65